Chesterville, Mississippi
Current Conditions -  °F | °C
As of 11:53 PM on Sunday 25 Jan 2015 (Local Time) from KTUP Reporting Station
Overcast Overcast  
Wind Chill: 40°   Ceiling: 2500
Heat Index: 44°   Visibility: 10mi
Dew Point: 35°   Wind: 8mph
Humidity: 71%   Direction: 330°NNW
Pressure: 29.89"   Gusts: NA
Location:  34.2235°N, 88.7398°W
Report Text: KTUP 260553Z AUTO 33007KT 290V360 10SM BKN025 OVC030 07/02 A2989 RMK AO2 SLP120 60008 T00670017 10083 20067 401610000 52014
Loading
Personal Weather Stations






























Interactive Weather Map New forecast layout! Learn more

10-Day Weather Forecast

Advertisements
Track Severe Weather on mobile